This is the latest recevied weather packets stored in our database for station/object DG1GMY-13. If no packets are shown the sender has not sent any weather packets the latest 10 day(s).
| Time | Temp. | Humidity | Pressure | Rain* | Wind** | Luminosity | Snow |
|---|---|---|---|---|---|---|---|
| 1777718148 | 23.33° C | 39% | 1021.5 hPa | - | - | - | - |
| 1777716342 | 21.67° C | 40% | 1022 hPa | - | - | - | - |
| 1777714536 | 21.67° C | 42% | 1022.5 hPa | - | - | - | - |
| 1777712730 | 20° C | 43% | 1022.7 hPa | - | - | - | - |
| 1777710925 | 18.89° C | 43% | 1023 hPa | - | - | - | - |
| 1777709118 | 17.22° C | 50% | 1023.1 hPa | - | - | - | - |
| 1777707312 | 15.56° C | 53% | 1023.2 hPa | - | - | - | - |
| 1777705506 | 13.89° C | 55% | 1023.5 hPa | - | - | - | - |
| 1777703701 | 13.33° C | 58% | 1023.5 hPa | - | - | - | - |
| 1777701894 | 11.67° C | 66% | 1023.6 hPa | - | - | - | - |
| 1777700089 | 10° C | 69% | 1023.6 hPa | - | - | - | - |
| 1777698283 | 9.44° C | 67% | 1023.3 hPa | - | - | - | - |
| 1777696477 | 9.44° C | 64% | 1023.1 hPa | - | - | - | - |
| 1777694671 | 8.89° C | 64% | 1023.1 hPa | - | - | - | - |
| 1777692865 | 9.44° C | 59% | 1023.1 hPa | - | - | - | - |
| 1777691059 | 10.56° C | 55% | 1022.9 hPa | - | - | - | - |
| 1777689253 | 11.67° C | 49% | 1022.9 hPa | - | - | - | - |
| 1777687447 | 12.22° C | 48% | 1023 hPa | - | - | - | - |
| 1777685641 | 12.22° C | 49% | 1023.1 hPa | - | - | - | - |
| 1777683835 | 12.78° C | 47% | 1023.3 hPa | - | - | - | - |
| 1777682029 | 13.33° C | 44% | 1023.2 hPa | - | - | - | - |
| 1777680223 | 13.33° C | 44% | 1023.2 hPa | - | - | - | - |
| 1777678417 | 13.89° C | 42% | 1023.2 hPa | - | - | - | - |
| 1777676611 | 16.67° C | 37% | 1023.2 hPa | - | - | - | - |
| 1777674805 | 18.33° C | 31% | 1023.1 hPa | - | - | - | - |
* Rain since midnight (hover to see other rain measurements)
** Current wind speed in m/s (hover to see current wind gust speed)